Time;durP1;ratioP1;P1;durP2;ratioP2;P2;SDS_P1;SDS_P2;PMS_P1;PMS_P2;Temp;Humidity;BMP_temperature;BMP_pressure;BME280_temperature;BME280_humidity;BME280_pressure;Samples;Min_cycle;Max_cycle;Signal;HPM_P1;HPM_P2
2023/06/09 00:00:11;;;;;;;;;26.00;23.67;;;;;;;;5092257;27;45263;-79
2023/06/09 00:02:37;;;;;;;;;29.75;27.50;;;;;;;;5081494;27;45160;-79
2023/06/09 00:05:02;;;;;;;;;27.00;25.75;;;;;;;;5080695;27;45219;-80
2023/06/09 00:07:29;;;;;;;;;30.50;27.25;;;;;;;;5079148;27;47727;-80
2023/06/09 00:09:54;;;;;;;;;24.25;23.25;;;;;;;;5080882;27;45425;-79
2023/06/09 00:12:20;;;;;;;;;23.00;22.33;;;;;;;;5080684;27;45355;-79
2023/06/09 00:14:45;;;;;;;;;23.00;21.67;;;;;;;;5084254;27;45547;-80
2023/06/09 00:17:10;;;;;;;;;20.67;19.33;;;;;;;;5078625;27;45373;-80
2023/06/09 00:19:36;;;;;;;;;24.00;23.25;;;;;;;;5090210;27;45336;-80
2023/06/09 00:22:01;;;;;;;;;24.00;23.25;;;;;;;;5100659;27;45401;-80
2023/06/09 00:24:26;;;;;;;;;25.25;23.00;;;;;;;;5086609;27;46299;-80
2023/06/09 00:26:52;;;;;;;;;24.00;23.00;;;;;;;;5081867;27;45474;-80
2023/06/09 00:29:18;;;;;;;;;25.00;23.00;;;;;;;;5086966;27;45441;-80
2023/06/09 00:31:44;;;;;;;;;23.25;23.25;;;;;;;;5080111;27;45294;-81
2023/06/09 00:34:09;;;;;;;;;25.75;24.50;;;;;;;;5080224;27;45223;-81
2023/06/09 00:36:35;;;;;;;;;21.67;21.33;;;;;;;;5080132;27;45301;-81
2023/06/09 00:39:00;;;;;;;;;26.25;23.25;;;;;;;;5079552;27;45195;-80
2023/06/09 00:41:25;;;;;;;;;26.33;25.00;;;;;;;;5091486;27;45254;-81
2023/06/09 00:43:51;;;;;;;;;23.00;19.50;;;;;;;;5097464;27;45580;-81
2023/06/09 00:46:16;;;;;;;;;25.33;24.33;;;;;;;;5081079;27;45384;-81
2023/06/09 00:48:41;;;;;;;;;27.50;26.75;;;;;;;;5079893;27;45290;-82
2023/06/09 00:51:07;;;;;;;;;24.75;24.25;;;;;;;;5080075;27;45453;-81
2023/06/09 00:53:32;;;;;;;;;24.00;22.50;;;;;;;;5079832;28;45152;-81
2023/06/09 00:55:57;;;;;;;;;23.50;21.00;;;;;;;;5079572;27;46762;-82
2023/06/09 00:58:23;;;;;;;;;27.00;25.50;;;;;;;;5079690;27;45270;-82
2023/06/09 01:00:50;;;;;;;;;27.50;26.00;;;;;;;;5078830;27;45477;-82
2023/06/09 01:03:16;;;;;;;;;30.00;27.50;;;;;;;;5089686;27;47074;-82
2023/06/09 01:05:44;;;;;;;;;27.25;25.75;;;;;;;;5099761;27;45443;-82
2023/06/09 01:08:18;;;;;;;;;27.25;25.50;;;;;;;;5087355;27;45579;-82
2023/06/09 01:10:49;;;;;;;;;28.75;26.00;;;;;;;;5088913;27;45247;-81
2023/06/09 01:13:14;;;;;;;;;27.25;25.50;;;;;;;;5078886;27;45318;-82
2023/06/09 01:15:43;;;;;;;;;22.33;22.00;;;;;;;;5077378;28;47540;-82
2023/06/09 01:18:12;;;;;;;;;27.25;24.75;;;;;;;;5079399;27;45590;-82
2023/06/09 01:20:44;;;;;;;;;24.25;23.50;;;;;;;;5079510;27;45508;-82
2023/06/09 01:23:16;;;;;;;;;28.50;25.50;;;;;;;;5086386;27;45480;-81
2023/06/09 01:25:45;;;;;;;;;25.25;24.75;;;;;;;;5087972;27;45389;-82
2023/06/09 01:28:15;;;;;;;;;24.50;24.25;;;;;;;;5100189;27;45480;-82
2023/06/09 01:30:41;;;;;;;;;24.50;24.50;;;;;;;;5083031;27;45378;-82
2023/06/09 01:33:10;;;;;;;;;28.00;24.75;;;;;;;;5102400;27;45314;-82
2023/06/09 01:35:37;;;;;;;;;25.75;24.50;;;;;;;;5103231;27;45365;-83
2023/06/09 01:38:03;;;;;;;;;25.00;24.25;;;;;;;;5103430;27;45205;-82
2023/06/09 01:40:29;;;;;;;;;30.25;29.00;;;;;;;;5088795;27;45700;-83
2023/06/09 01:42:56;;;;;;;;;27.00;24.50;;;;;;;;5103247;27;45301;-83
2023/06/09 01:45:21;;;;;;;;;26.75;23.00;;;;;;;;5093536;27;46794;-82
2023/06/09 01:47:47;;;;;;;;;21.67;21.00;;;;;;;;5097278;27;45397;-83
2023/06/09 01:50:31;;;;;;;;;23.50;23.00;;;;;;;;5097886;27;45353;-82
2023/06/09 01:53:02;;;;;;;;;26.25;25.50;;;;;;;;5082485;28;45449;-82
2023/06/09 01:55:30;;;;;;;;;25.75;24.50;;;;;;;;5082521;27;45468;-82
2023/06/09 01:57:55;;;;;;;;;24.25;23.00;;;;;;;;5082608;27;45314;-82
2023/06/09 02:00:24;;;;;;;;;22.75;22.75;;;;;;;;5081808;27;45236;-82
2023/06/09 02:02:52;;;;;;;;;28.75;26.50;;;;;;;;5084558;27;45223;-82
2023/06/09 02:05:18;;;;;;;;;25.00;23.25;;;;;;;;5102552;27;45447;-83
2023/06/09 02:07:44;;;;;;;;;26.25;24.75;;;;;;;;5102935;27;45606;-82
2023/06/09 02:10:10;;;;;;;;;26.50;25.25;;;;;;;;5099753;27;45304;-82
2023/06/09 02:12:35;;;;;;;;;24.75;23.75;;;;;;;;5091333;27;45552;-82
2023/06/09 02:15:00;;;;;;;;;27.00;23.33;;;;;;;;5100283;27;45800;-82
2023/06/09 02:17:26;;;;;;;;;23.25;22.75;;;;;;;;5094059;27;45286;-82
2023/06/09 02:19:51;;;;;;;;;23.25;21.50;;;;;;;;5082032;27;45305;-82
2023/06/09 02:22:17;;;;;;;;;26.50;25.75;;;;;;;;5091498;27;45330;-83
2023/06/09 02:24:42;;;;;;;;;23.67;23.00;;;;;;;;5087734;27;47856;-82
2023/06/09 02:27:07;;;;;;;;;25.00;24.67;;;;;;;;5090224;27;45260;-82
2023/06/09 02:29:32;;;;;;;;;25.33;24.00;;;;;;;;5087113;27;45463;-82
2023/06/09 02:31:58;;;;;;;;;24.67;24.00;;;;;;;;5093763;27;45508;-82
2023/06/09 02:34:23;;;;;;;;;24.25;22.25;;;;;;;;5088873;27;47321;-82
2023/06/09 02:36:52;;;;;;;;;25.75;24.50;;;;;;;;5102347;27;45307;-82
2023/06/09 02:39:17;;;;;;;;;28.00;26.00;;;;;;;;5100242;27;45325;-82
2023/06/09 02:41:43;;;;;;;;;25.25;23.75;;;;;;;;5098347;27;45292;-82
2023/06/09 02:44:08;;;;;;;;;25.00;23.67;;;;;;;;5091058;27;47120;-82
2023/06/09 02:46:35;;;;;;;;;26.33;25.33;;;;;;;;5087527;27;45385;-82
2023/06/09 02:49:00;;;;;;;;;23.00;22.00;;;;;;;;5081632;27;45267;-82
2023/06/09 02:51:25;;;;;;;;;26.25;25.25;;;;;;;;5081900;27;45234;-82
2023/06/09 02:53:51;;;;;;;;;27.00;25.00;;;;;;;;5081585;27;46353;-82
2023/06/09 02:56:17;;;;;;;;;28.00;26.33;;;;;;;;5081699;27;45279;-82
2023/06/09 02:58:42;;;;;;;;;28.25;26.75;;;;;;;;5081007;27;45453;-82
2023/06/09 03:01:07;;;;;;;;;26.00;25.25;;;;;;;;5083201;27;45509;-77
2023/06/09 03:03:34;;;;;;;;;18.50;17.50;;;;;;;;5092310;27;46268;-82
2023/06/09 03:05:59;;;;;;;;;28.00;26.25;;;;;;;;5101767;27;45283;-81
2023/06/09 03:08:25;;;;;;;;;30.00;25.67;;;;;;;;5102227;27;45524;-82
2023/06/09 03:10:52;;;;;;;;;27.50;26.00;;;;;;;;5101939;27;45414;-83
2023/06/09 03:13:18;;;;;;;;;27.25;25.50;;;;;;;;5086509;27;45592;-81
2023/06/09 03:15:44;;;;;;;;;32.67;31.67;;;;;;;;5087342;27;45321;-82
2023/06/09 03:18:09;;;;;;;;;31.25;25.50;;;;;;;;5100737;27;45725;-82
2023/06/09 03:20:36;;;;;;;;;27.67;26.33;;;;;;;;5101499;27;45601;-82
2023/06/09 03:23:01;;;;;;;;;25.75;23.50;;;;;;;;5081338;27;48345;-82
2023/06/09 03:25:27;;;;;;;;;29.33;28.33;;;;;;;;5093094;27;45235;-81
2023/06/09 03:27:53;;;;;;;;;22.25;21.00;;;;;;;;5092709;27;45476;-82
2023/06/09 03:30:18;;;;;;;;;26.25;24.50;;;;;;;;5094856;27;46908;-82
2023/06/09 03:32:43;;;;;;;;;31.00;28.67;;;;;;;;5094931;27;46492;-82
2023/06/09 03:35:08;;;;;;;;;30.33;28.33;;;;;;;;5087444;27;45292;-82
2023/06/09 03:37:34;;;;;;;;;28.00;25.75;;;;;;;;5101855;27;45226;-81
2023/06/09 03:39:59;;;;;;;;;25.00;23.00;;;;;;;;5101580;27;45594;-81
2023/06/09 03:42:25;;;;;;;;;26.00;25.75;;;;;;;;5098152;27;45826;-81
2023/06/09 03:44:57;;;;;;;;;26.00;23.50;;;;;;;;5089921;27;45173;-81
2023/06/09 03:47:22;;;;;;;;;32.00;29.75;;;;;;;;5096053;27;45448;-81
2023/06/09 03:49:47;;;;;;;;;28.33;26.67;;;;;;;;5087299;27;45530;-81
2023/06/09 03:52:13;;;;;;;;;28.33;24.33;;;;;;;;5100822;27;46396;-82
2023/06/09 03:54:38;;;;;;;;;29.00;29.00;;;;;;;;5101256;27;45283;-82
2023/06/09 03:57:03;;;;;;;;;29.25;27.00;;;;;;;;5101347;27;45321;-82
2023/06/09 03:59:28;;;;;;;;;31.00;27.50;;;;;;;;5082544;27;45536;-81
2023/06/09 04:01:54;;;;;;;;;26.33;26.00;;;;;;;;5079546;27;46564;-82
2023/06/09 04:04:19;;;;;;;;;32.67;27.33;;;;;;;;5088436;27;45385;-82
2023/06/09 04:06:45;;;;;;;;;29.67;28.67;;;;;;;;5096485;27;45263;-82
2023/06/09 04:09:12;;;;;;;;;31.25;30.25;;;;;;;;5101170;27;45214;-82
2023/06/09 04:11:37;;;;;;;;;29.25;28.25;;;;;;;;5100904;27;45386;-82
2023/06/09 04:14:03;;;;;;;;;34.50;31.00;;;;;;;;5088595;27;45221;-82
2023/06/09 04:16:28;;;;;;;;;28.75;26.00;;;;;;;;5078972;28;45296;-82
2023/06/09 04:18:53;;;;;;;;;27.67;26.33;;;;;;;;5083331;27;45768;-82
2023/06/09 04:21:18;;;;;;;;;24.67;21.00;;;;;;;;5088797;27;47301;-82
2023/06/09 04:23:44;;;;;;;;;30.67;27.33;;;;;;;;5083901;27;45310;-82
2023/06/09 04:26:09;;;;;;;;;30.33;26.33;;;;;;;;5080603;27;45351;-81
2023/06/09 04:28:34;;;;;;;;;27.75;26.00;;;;;;;;5086417;27;45236;-81
2023/06/09 04:31:00;;;;;;;;;23.00;21.25;;;;;;;;5079617;27;46316;-82
2023/06/09 04:33:26;;;;;;;;;29.50;28.25;;;;;;;;5079840;27;45310;-82
2023/06/09 04:35:54;;;;;;;;;32.25;30.75;;;;;;;;5080014;27;45387;-81
2023/06/09 04:38:20;;;;;;;;;25.75;25.50;;;;;;;;5080374;27;45267;-81
2023/06/09 04:40:46;;;;;;;;;26.75;24.75;;;;;;;;5079935;27;46355;-81
2023/06/09 04:43:11;;;;;;;;;29.75;26.25;;;;;;;;5079705;27;45611;-81
2023/06/09 04:45:37;;;;;;;;;28.33;26.00;;;;;;;;5091566;27;45313;-82
2023/06/09 04:48:02;;;;;;;;;27.00;27.00;;;;;;;;5082753;27;45420;-82
2023/06/09 04:50:32;;;;;;;;;28.00;26.50;;;;;;;;5079884;27;46366;-81
2023/06/09 04:52:58;;;;;;;;;28.25;26.50;;;;;;;;5079935;27;45271;-81
2023/06/09 04:55:25;;;;;;;;;27.25;25.50;;;;;;;;5080146;27;45317;-81
2023/06/09 04:57:53;;;;;;;;;21.75;21.75;;;;;;;;5079884;27;45436;-81
2023/06/09 05:00:19;;;;;;;;;26.50;26.00;;;;;;;;5080862;27;46476;-81
2023/06/09 05:02:44;;;;;;;;;24.50;23.75;;;;;;;;5084634;27;45323;-80
2023/06/09 05:05:10;;;;;;;;;26.75;24.50;;;;;;;;5081833;28;45449;-80
2023/06/09 05:07:38;;;;;;;;;27.00;25.25;;;;;;;;5083241;27;45476;-81
2023/06/09 05:10:03;;;;;;;;;28.25;26.00;;;;;;;;5087753;27;46627;-81
2023/06/09 05:12:28;;;;;;;;;23.00;21.00;;;;;;;;5081706;27;45356;-81
2023/06/09 05:14:53;;;;;;;;;31.33;28.67;;;;;;;;5100211;27;45212;-81
2023/06/09 05:17:19;;;;;;;;;24.33;22.00;;;;;;;;5103804;27;45275;-81
2023/06/09 05:19:44;;;;;;;;;28.00;24.00;;;;;;;;5100262;27;46681;-81
2023/06/09 05:22:09;;;;;;;;;26.00;23.00;;;;;;;;5091345;27;45273;-80
2023/06/09 05:24:34;;;;;;;;;25.33;23.00;;;;;;;;5102004;27;45146;-82
2023/06/09 05:26:59;;;;;;;;;24.00;23.00;;;;;;;;5090530;27;45260;-82
2023/06/09 05:29:25;;;;;;;;;28.00;25.00;;;;;;;;5087688;27;46453;-81
2023/06/09 05:31:50;;;;;;;;;27.50;26.75;;;;;;;;5100461;27;45469;-81
2023/06/09 05:34:15;;;;;;;;;25.67;24.33;;;;;;;;5102028;27;45204;-82
2023/06/09 05:36:40;;;;;;;;;27.33;26.33;;;;;;;;5089243;27;45223;-81
2023/06/09 05:39:07;;;;;;;;;31.00;26.67;;;;;;;;5103472;27;46382;-81
2023/06/09 05:41:33;;;;;;;;;29.25;27.00;;;;;;;;5088642;27;45243;-82
2023/06/09 05:43:58;;;;;;;;;24.67;23.33;;;;;;;;5098103;27;45194;-80
2023/06/09 05:46:25;;;;;;;;;27.67;25.00;;;;;;;;5082436;27;45223;-81
2023/06/09 05:48:51;;;;;;;;;24.00;22.75;;;;;;;;5082621;27;46412;-81
2023/06/09 05:51:16;;;;;;;;;27.50;26.50;;;;;;;;5093781;27;45302;-81
2023/06/09 05:53:42;;;;;;;;;25.25;24.50;;;;;;;;5094012;27;45342;-81
2023/06/09 05:56:07;;;;;;;;;25.50;22.75;;;;;;;;5090855;27;45566;-81
2023/06/09 05:58:33;;;;;;;;;28.00;24.67;;;;;;;;5094952;27;45407;-81
2023/06/09 06:00:59;;;;;;;;;22.50;21.50;;;;;;;;5103944;27;45349;-78
2023/06/09 06:03:24;;;;;;;;;23.75;23.00;;;;;;;;5097974;27;45517;-80
2023/06/09 06:05:50;;;;;;;;;24.50;23.00;;;;;;;;5085552;27;45298;-79
2023/06/09 06:08:15;;;;;;;;;24.67;22.67;;;;;;;;5090510;27;45384;-81
2023/06/09 06:10:40;;;;;;;;;26.00;24.00;;;;;;;;5091576;27;46139;-79
2023/06/09 06:13:05;;;;;;;;;25.33;24.67;;;;;;;;5096693;27;45401;-77
2023/06/09 06:15:31;;;;;;;;;25.00;24.00;;;;;;;;5081802;27;45916;-85
2023/06/09 06:17:56;;;;;;;;;23.00;21.25;;;;;;;;5092035;27;47645;-81
2023/06/09 06:20:21;;;;;;;;;20.33;19.67;;;;;;;;5083080;27;45326;-79
2023/06/09 06:22:46;;;;;;;;;20.67;19.33;;;;;;;;5091923;27;45547;-79
2023/06/09 06:25:13;;;;;;;;;22.33;21.33;;;;;;;;5082741;27;45634;-80
2023/06/09 06:27:38;;;;;;;;;25.50;23.00;;;;;;;;5090108;27;45439;-82
2023/06/09 06:30:04;;;;;;;;;26.00;23.50;;;;;;;;5089966;27;45488;-77
2023/06/09 06:32:29;;;;;;;;;17.50;17.50;;;;;;;;5094508;27;45475;-77
2023/06/09 06:34:55;;;;;;;;;23.50;22.00;;;;;;;;5088044;27;45464;-79
2023/06/09 06:37:22;;;;;;;;;21.75;20.50;;;;;;;;5083076;27;47390;-75
2023/06/09 06:39:47;;;;;;;;;22.25;19.00;;;;;;;;5085484;27;45947;-75
2023/06/09 06:42:12;;;;;;;;;23.00;21.67;;;;;;;;5087387;27;45587;-74
2023/06/09 06:44:37;;;;;;;;;24.00;21.67;;;;;;;;5087213;27;46405;-79
2023/06/09 06:47:03;;;;;;;;;25.33;23.00;;;;;;;;5083389;27;46474;-81
2023/06/09 06:49:28;;;;;;;;;23.75;22.50;;;;;;;;5088752;27;45527;-76
2023/06/09 06:51:53;;;;;;;;;23.33;21.33;;;;;;;;5090279;27;47008;-80
2023/06/09 06:54:18;;;;;;;;;24.33;23.33;;;;;;;;5083782;27;45393;-73
2023/06/09 06:56:44;;;;;;;;;25.00;25.00;;;;;;;;5090583;27;47182;-77
2023/06/09 06:59:09;;;;;;;;;29.00;26.33;;;;;;;;5097156;27;45487;-74
2023/06/09 07:01:35;;;;;;;;;26.25;23.75;;;;;;;;5091051;27;45452;-75
2023/06/09 07:04:00;;;;;;;;;20.50;20.00;;;;;;;;5079930;27;45386;-78
2023/06/09 07:06:27;;;;;;;;;26.00;22.33;;;;;;;;5084667;27;45701;-74
2023/06/09 07:08:54;;;;;;;;;19.75;18.25;;;;;;;;5093193;27;47342;-75
2023/06/09 07:11:19;;;;;;;;;24.50;21.00;;;;;;;;5085536;27;47100;-78
2023/06/09 07:13:44;;;;;;;;;20.67;20.00;;;;;;;;5085042;27;46980;-76
2023/06/09 07:16:09;;;;;;;;;24.00;22.67;;;;;;;;5083911;27;45742;-77
2023/06/09 07:18:34;;;;;;;;;24.33;22.33;;;;;;;;5093553;27;45465;-75
2023/06/09 07:21:00;;;;;;;;;21.33;21.00;;;;;;;;5082874;27;45492;-78
2023/06/09 07:23:25;;;;;;;;;22.50;21.00;;;;;;;;5085111;27;47230;-77
2023/06/09 07:25:50;;;;;;;;;21.75;20.25;;;;;;;;5086014;27;46919;-77
2023/06/09 07:28:16;;;;;;;;;21.00;20.33;;;;;;;;5085286;27;46995;-79
2023/06/09 07:30:41;;;;;;;;;18.33;18.00;;;;;;;;5084827;27;45714;-76
2023/06/09 07:33:06;;;;;;;;;19.00;18.00;;;;;;;;5091365;27;46869;-80
2023/06/09 07:35:32;;;;;;;;;20.25;20.25;;;;;;;;5084756;27;45734;-77
2023/06/09 07:37:58;;;;;;;;;25.00;21.33;;;;;;;;5081626;27;45911;-78
2023/06/09 07:40:23;;;;;;;;;18.25;18.25;;;;;;;;5090451;27;45854;-74
2023/06/09 07:42:48;;;;;;;;;16.33;15.67;;;;;;;;5089431;27;45667;-75
2023/06/09 07:45:14;;;;;;;;;20.00;19.00;;;;;;;;5088988;27;45977;-75
2023/06/09 07:47:39;;;;;;;;;21.33;21.33;;;;;;;;5086956;27;46009;-75
2023/06/09 07:50:06;;;;;;;;;24.67;22.00;;;;;;;;5091224;27;45732;-75
2023/06/09 07:52:32;;;;;;;;;23.75;22.50;;;;;;;;5084185;27;45640;-76
2023/06/09 07:54:57;;;;;;;;;23.50;21.50;;;;;;;;5090950;27;45669;-76
2023/06/09 07:57:22;;;;;;;;;20.00;19.00;;;;;;;;5089736;27;45666;-79
2023/06/09 07:59:48;;;;;;;;;21.25;20.25;;;;;;;;5089332;27;46853;-77
2023/06/09 08:02:13;;;;;;;;;22.33;20.00;;;;;;;;5090558;27;45693;-78
2023/06/09 08:04:41;;;;;;;;;20.50;19.00;;;;;;;;5088612;27;45446;-79
2023/06/09 08:07:06;;;;;;;;;20.75;20.00;;;;;;;;5082102;27;45342;-77
2023/06/09 08:09:31;;;;;;;;;23.00;22.00;;;;;;;;5089215;27;45428;-76
2023/06/09 08:11:56;;;;;;;;;26.00;23.00;;;;;;;;5088810;27;45515;-77
2023/06/09 08:14:22;;;;;;;;;18.00;18.00;;;;;;;;5079191;27;47757;-78
2023/06/09 08:16:47;;;;;;;;;21.00;19.25;;;;;;;;5094083;27;45270;-77
2023/06/09 08:19:12;;;;;;;;;21.75;21.75;;;;;;;;5099528;27;45496;-74
2023/06/09 08:21:43;;;;;;;;;19.50;18.75;;;;;;;;5080074;27;46101;-77
2023/06/09 08:24:09;;;;;;;;;24.50;23.25;;;;;;;;5084094;27;46483;-77
2023/06/09 08:26:34;;;;;;;;;19.50;19.00;;;;;;;;5086183;27;45523;-76
2023/06/09 08:28:59;;;;;;;;;17.67;17.00;;;;;;;;5084416;27;45286;-76
2023/06/09 08:31:27;;;;;;;;;20.33;19.67;;;;;;;;5097291;27;45286;-76
2023/06/09 08:33:53;;;;;;;;;22.75;22.50;;;;;;;;5094941;27;47080;-76
2023/06/09 08:36:18;;;;;;;;;22.00;20.00;;;;;;;;5100495;27;45415;-75
2023/06/09 08:38:43;;;;;;;;;22.75;22.00;;;;;;;;5099694;27;45324;-76
2023/06/09 08:41:09;;;;;;;;;22.67;21.33;;;;;;;;5088101;27;46059;-81
2023/06/09 08:43:35;;;;;;;;;23.25;22.75;;;;;;;;5079936;27;47252;-73
2023/06/09 08:46:02;;;;;;;;;23.00;21.25;;;;;;;;5084742;27;45520;-72
2023/06/09 08:48:29;;;;;;;;;20.50;18.75;;;;;;;;5081312;27;45907;-75
2023/06/09 08:50:54;;;;;;;;;18.75;18.50;;;;;;;;5087970;27;45974;-76
2023/06/09 08:53:20;;;;;;;;;23.00;22.50;;;;;;;;5087156;27;46865;-76
2023/06/09 08:55:46;;;;;;;;;26.00;24.25;;;;;;;;5089100;27;46925;-76
2023/06/09 08:58:12;;;;;;;;;19.50;19.25;;;;;;;;5086127;27;45907;-73
2023/06/09 09:00:38;;;;;;;;;21.75;20.50;;;;;;;;5084998;27;45827;-75
2023/06/09 09:03:03;;;;;;;;;22.50;21.50;;;;;;;;5082512;27;48257;-76
2023/06/09 09:05:28;;;;;;;;;23.33;22.33;;;;;;;;5083216;27;45948;-76
2023/06/09 09:07:53;;;;;;;;;24.67;21.00;;;;;;;;5086990;27;45671;-79
2023/06/09 09:10:19;;;;;;;;;18.00;18.00;;;;;;;;5086190;27;45885;-79
2023/06/09 09:12:51;;;;;;;;;22.75;22.75;;;;;;;;5090455;27;48458;-79
2023/06/09 09:15:17;;;;;;;;;21.75;20.75;;;;;;;;5078841;27;46893;-79
2023/06/09 09:17:44;;;;;;;;;20.25;19.25;;;;;;;;5092022;27;45541;-79
2023/06/09 09:20:10;;;;;;;;;21.25;20.50;;;;;;;;5099736;27;45265;-78
2023/06/09 09:22:44;;;;;;;;;16.50;16.25;;;;;;;;5097797;27;46188;-78
2023/06/09 09:25:10;;;;;;;;;21.50;20.00;;;;;;;;5087903;27;45198;-78
2023/06/09 09:27:35;;;;;;;;;15.75;14.25;;;;;;;;5085546;27;45461;-77
2023/06/09 09:30:00;;;;;;;;;24.33;23.33;;;;;;;;5099497;27;45614;-78
2023/06/09 09:32:26;;;;;;;;;24.00;23.25;;;;;;;;5085543;27;46417;-78
2023/06/09 09:34:51;;;;;;;;;22.00;20.25;;;;;;;;5085292;27;45533;-78
2023/06/09 09:37:17;;;;;;;;;24.00;23.75;;;;;;;;5099912;27;45293;-78
2023/06/09 09:39:52;;;;;;;;;22.00;21.50;;;;;;;;5091402;27;45838;-78
2023/06/09 09:42:17;;;;;;;;;24.25;22.75;;;;;;;;5089659;27;45511;-78
2023/06/09 09:44:44;;;;;;;;;20.25;18.50;;;;;;;;5078760;27;45299;-78
2023/06/09 09:47:19;;;;;;;;;21.00;20.50;;;;;;;;5096827;27;45223;-78
2023/06/09 09:49:53;;;;;;;;;19.00;19.00;;;;;;;;5097838;27;45345;-78
2023/06/09 09:52:24;;;;;;;;;24.25;23.25;;;;;;;;5101166;27;46251;-78
2023/06/09 09:54:50;;;;;;;;;20.00;19.00;;;;;;;;5086697;27;45430;-77
2023/06/09 09:57:15;;;;;;;;;18.75;18.25;;;;;;;;5089643;27;45702;-77
2023/06/09 09:59:41;;;;;;;;;23.00;22.25;;;;;;;;5102521;27;45281;-78
2023/06/09 10:02:09;;;;;;;;;20.50;18.25;;;;;;;;5095444;27;47166;-77
2023/06/09 10:04:36;;;;;;;;;16.25;16.25;;;;;;;;5094170;27;45303;-79
2023/06/09 10:07:01;;;;;;;;;22.75;22.00;;;;;;;;5087577;27;45766;-79
2023/06/09 10:09:27;;;;;;;;;23.00;22.00;;;;;;;;5099150;27;45278;-80
2023/06/09 10:11:54;;;;;;;;;21.25;20.00;;;;;;;;5100875;27;45423;-79
2023/06/09 10:14:22;;;;;;;;;19.00;18.75;;;;;;;;5083208;27;45234;-79
2023/06/09 10:16:49;;;;;;;;;21.25;19.50;;;;;;;;5093540;27;45293;-79
2023/06/09 10:19:16;;;;;;;;;19.50;18.75;;;;;;;;5102647;27;45357;-79
2023/06/09 10:21:41;;;;;;;;;20.25;20.00;;;;;;;;5090569;27;48071;-78
2023/06/09 10:24:07;;;;;;;;;23.25;22.00;;;;;;;;5097189;27;45322;-77
2023/06/09 10:26:33;;;;;;;;;23.25;22.25;;;;;;;;5082142;27;45421;-78
2023/06/09 10:28:59;;;;;;;;;19.25;18.75;;;;;;;;5096674;27;45814;-78
2023/06/09 10:31:25;;;;;;;;;20.25;20.25;;;;;;;;5100911;27;47393;-79
2023/06/09 10:33:53;;;;;;;;;19.75;18.25;;;;;;;;5098862;27;45429;-78
2023/06/09 10:36:18;;;;;;;;;18.00;17.75;;;;;;;;5082803;27;45228;-78
2023/06/09 10:38:45;;;;;;;;;20.25;19.75;;;;;;;;5081689;27;45787;-79
2023/06/09 10:41:32;;;;;;;;;20.00;19.50;;;;;;;;5100261;27;46351;-79
2023/06/09 10:43:58;;;;;;;;;19.25;18.75;;;;;;;;5099065;27;45357;-80
2023/06/09 10:46:42;;;;;;;;;18.50;16.75;;;;;;;;5101876;27;45239;-80
2023/06/09 10:49:38;;;;;;;;;19.25;18.75;;;;;;;;5095519;27;45590;-79
2023/06/09 10:52:05;;;;;;;;;18.50;18.25;;;;;;;;5081838;27;46217;-80
2023/06/09 10:54:32;;;;;;;;;18.50;17.75;;;;;;;;5083979;27;45438;-80
2023/06/09 10:57:00;;;;;;;;;21.25;19.25;;;;;;;;5101787;27;45314;-80
2023/06/09 10:59:25;;;;;;;;;19.25;19.25;;;;;;;;5101366;27;45310;-80
2023/06/09 11:02:00;;;;;;;;;17.50;17.50;;;;;;;;5093866;27;46428;-80
2023/06/09 11:04:37;;;;;;;;;17.00;16.50;;;;;;;;5083557;27;45368;-79
2023/06/09 11:07:09;;;;;;;;;17.75;17.50;;;;;;;;5091947;27;45478;-80
2023/06/09 11:09:36;;;;;;;;;17.00;17.00;;;;;;;;5091469;27;45618;-80
2023/06/09 11:12:01;;;;;;;;;19.00;18.50;;;;;;;;5093048;27;47934;-80
2023/06/09 11:14:45;;;;;;;;;16.50;16.50;;;;;;;;5080629;27;45301;-79
2023/06/09 11:17:16;;;;;;;;;15.50;15.25;;;;;;;;5083480;27;45878;-79
2023/06/09 11:19:41;;;;;;;;;14.00;14.00;;;;;;;;5080068;27;45324;-79
2023/06/09 11:22:08;;;;;;;;;18.00;17.50;;;;;;;;5081388;27;47446;-81
2023/06/09 11:24:46;;;;;;;;;17.00;15.25;;;;;;;;5087040;27;45434;-81
2023/06/09 11:27:21;;;;;;;;;18.00;18.00;;;;;;;;5091508;27;45340;-79
2023/06/09 11:30:06;;;;;;;;;13.75;13.75;;;;;;;;5101191;27;45535;-79
2023/06/09 11:32:47;;;;;;;;;17.50;16.25;;;;;;;;5095820;27;45330;-79
2023/06/09 11:35:31;;;;;;;;;18.75;17.00;;;;;;;;5085516;27;45176;-78
2023/06/09 11:38:00;;;;;;;;;17.75;17.75;;;;;;;;5081631;27;45286;-79
2023/06/09 11:40:26;;;;;;;;;15.00;14.50;;;;;;;;5083130;27;45321;-79
2023/06/09 11:42:52;;;;;;;;;16.75;15.75;;;;;;;;5088855;27;46348;-78
2023/06/09 11:45:17;;;;;;;;;17.75;17.00;;;;;;;;5084917;27;45374;-80
2023/06/09 11:47:44;;;;;;;;;16.25;15.50;;;;;;;;5088207;27;45298;-80
2023/06/09 11:50:13;;;;;;;;;16.00;15.00;;;;;;;;5101290;27;45446;-79
2023/06/09 11:52:40;;;;;;;;;16.00;15.75;;;;;;;;5097307;27;46355;-79
2023/06/09 11:55:05;;;;;;;;;19.00;18.25;;;;;;;;5092133;27;45317;-79
2023/06/09 11:57:34;;;;;;;;;14.50;14.50;;;;;;;;5101173;27;45413;-80
2023/06/09 12:00:03;;;;;;;;;18.25;16.25;;;;;;;;5100767;27;45270;-82
2023/06/09 12:02:31;;;;;;;;;17.00;16.00;;;;;;;;5088138;27;45497;-81
2023/06/09 12:04:57;;;;;;;;;13.00;12.75;;;;;;;;5078960;27;45299;-81
2023/06/09 12:07:22;;;;;;;;;16.50;15.75;;;;;;;;5093029;27;45295;-82
2023/06/09 12:09:55;;;;;;;;;15.50;15.50;;;;;;;;5085507;27;45906;-82
2023/06/09 12:12:21;;;;;;;;;14.00;13.50;;;;;;;;5094760;27;47183;-82
2023/06/09 12:14:46;;;;;;;;;14.67;14.00;;;;;;;;5089926;27;46013;-82
2023/06/09 12:17:11;;;;;;;;;16.33;16.00;;;;;;;;5100774;27;45348;-82
2023/06/09 12:19:36;;;;;;;;;15.75;15.75;;;;;;;;5096520;27;46826;-81
2023/06/09 12:22:02;;;;;;;;;17.00;17.00;;;;;;;;5091967;27;45593;-81
2023/06/09 12:24:28;;;;;;;;;15.50;15.00;;;;;;;;5097998;27;45684;-81
2023/06/09 12:26:53;;;;;;;;;16.75;16.25;;;;;;;;5086967;27;45444;-81
2023/06/09 12:29:24;;;;;;;;;17.33;14.67;;;;;;;;5098901;27;45405;-81
2023/06/09 12:31:49;;;;;;;;;12.75;11.75;;;;;;;;5100561;27;45333;-82
2023/06/09 12:34:22;;;;;;;;;14.67;14.67;;;;;;;;5092338;27;45322;-81
2023/06/09 12:36:48;;;;;;;;;16.00;15.00;;;;;;;;5100354;27;45468;-81
2023/06/09 12:39:29;;;;;;;;;10.50;10.50;;;;;;;;5097663;27;45201;-81
2023/06/09 12:41:54;;;;;;;;;14.00;14.00;;;;;;;;5083313;27;45292;-81
2023/06/09 12:44:23;;;;;;;;;16.00;15.67;;;;;;;;5100359;27;45247;-82
2023/06/09 12:46:55;;;;;;;;;13.50;13.50;;;;;;;;5099224;27;45345;-82
2023/06/09 12:49:47;;;;;;;;;16.00;16.00;;;;;;;;5083338;27;45329;-82
2023/06/09 12:52:12;;;;;;;;;15.00;15.00;;;;;;;;5081669;27;46414;-82
2023/06/09 12:54:37;;;;;;;;;15.33;14.67;;;;;;;;5098776;27;45439;-83
2023/06/09 12:57:02;;;;;;;;;15.00;14.00;;;;;;;;5086270;27;45282;-83
2023/06/09 12:59:28;;;;;;;;;16.25;16.25;;;;;;;;5100084;27;45336;-83
2023/06/09 13:01:53;;;;;;;;;15.00;15.00;;;;;;;;5094791;27;46506;-84
2023/06/09 13:04:18;;;;;;;;;16.75;16.25;;;;;;;;5089160;27;45538;-82
2023/06/09 13:06:43;;;;;;;;;15.75;14.75;;;;;;;;5091325;27;45412;-82
2023/06/09 13:09:09;;;;;;;;;11.33;11.00;;;;;;;;5091449;27;45639;-82
2023/06/09 13:11:34;;;;;;;;;15.50;14.50;;;;;;;;5099109;27;46166;-80
2023/06/09 13:13:59;;;;;;;;;14.00;14.00;;;;;;;;5090966;27;45247;-81
2023/06/09 13:16:24;;;;;;;;;15.00;15.00;;;;;;;;5088955;27;45246;-81
2023/06/09 13:18:50;;;;;;;;;15.00;13.75;;;;;;;;5081181;27;45476;-81
2023/06/09 13:21:15;;;;;;;;;14.25;14.25;;;;;;;;5084384;27;45203;-82
2023/06/09 13:23:40;;;;;;;;;15.67;14.67;;;;;;;;5099653;27;45396;-82
2023/06/09 13:26:05;;;;;;;;;15.00;14.67;;;;;;;;5101125;27;45412;-81
2023/06/09 13:28:30;;;;;;;;;13.00;12.33;;;;;;;;5089685;27;45893;-81
2023/06/09 13:30:56;;;;;;;;;13.00;13.00;;;;;;;;5093546;27;45648;-81
2023/06/09 13:33:21;;;;;;;;;11.00;10.00;;;;;;;;5103402;27;45148;-80
2023/06/09 13:35:46;;;;;;;;;16.00;12.00;;;;;;;;5102629;27;45571;-80
2023/06/09 13:38:12;;;;;;;;;15.00;15.00;;;;;;;;5082787;27;45195;-80
2023/06/09 13:40:41;;;;;;;;;14.75;14.00;;;;;;;;5101389;27;45598;-80
2023/06/09 13:43:11;;;;;;;;;13.75;13.75;;;;;;;;5090739;27;45918;-80
2023/06/09 13:45:37;;;;;;;;;15.00;15.00;;;;;;;;5093731;27;45284;-80
2023/06/09 13:48:02;;;;;;;;;13.25;12.75;;;;;;;;5103052;27;45571;-81
2023/06/09 13:50:27;;;;;;;;;14.00;13.50;;;;;;;;5095133;27;46588;-80
2023/06/09 13:52:52;;;;;;;;;15.00;14.67;;;;;;;;5093309;27;45259;-80
2023/06/09 13:55:19;;;;;;;;;12.33;10.67;;;;;;;;5097449;27;45214;-81
2023/06/09 13:57:44;;;;;;;;;14.50;12.75;;;;;;;;5091580;27;46648;-81
2023/06/09 14:00:11;;;;;;;;;14.25;13.50;;;;;;;;5102914;27;46086;-81
2023/06/09 14:02:38;;;;;;;;;11.50;11.50;;;;;;;;5096134;27;45330;-82
2023/06/09 14:05:04;;;;;;;;;12.25;11.75;;;;;;;;5101762;27;45277;-81
2023/06/09 14:07:29;;;;;;;;;14.75;14.00;;;;;;;;5099164;27;45776;-80
2023/06/09 14:09:55;;;;;;;;;13.00;12.00;;;;;;;;5090125;27;46308;-82
2023/06/09 14:12:20;;;;;;;;;15.50;15.50;;;;;;;;5082034;27;45508;-80